Time;durP1;ratioP1;P1;durP2;ratioP2;P2;SDS_P1;SDS_P2;PMS_P1;PMS_P2;Temp;Humidity;BMP_temperature;BMP_pressure;BME280_temperature;BME280_humidity;BME280_pressure;Samples;Min_cycle;Max_cycle;Signal;HPM_P1;HPM_P2
2023/01/22 00:01:23;;;;;;;1.60;1.40;;;;;;;-3.89;100.00;103141.72;10433917;28;20168;-77
2023/01/22 00:06:25;;;;;;;1.35;1.17;;;;;;;-3.82;100.00;103142.91;10444257;28;20037;-77
2023/01/22 00:11:28;;;;;;;3.58;1.20;;;;;;;-3.73;99.44;103145.69;10436207;28;20038;-77
2023/01/22 00:16:30;;;;;;;1.23;1.10;;;;;;;-3.73;98.62;103148.38;10445776;28;20042;-75
2023/01/22 00:21:33;;;;;;;1.40;0.90;;;;;;;-3.64;98.51;103149.47;10447884;28;20424;-79
2023/01/22 00:26:35;;;;;;;1.42;1.20;;;;;;;-3.70;98.12;103149.94;10448389;28;20061;-79
2023/01/22 00:31:37;;;;;;;1.48;1.27;;;;;;;-3.69;97.89;103152.50;10437134;28;20050;-80
2023/01/22 00:36:40;;;;;;;2.05;1.60;;;;;;;-3.57;97.74;103166.75;10445631;28;20048;-77
2023/01/22 00:41:43;;;;;;;1.50;1.20;;;;;;;-3.67;98.03;103171.16;10448300;28;20037;-77
2023/01/22 00:46:45;;;;;;;1.83;1.33;;;;;;;-3.73;97.87;103156.44;10411015;28;20049;-75
2023/01/22 00:51:47;;;;;;;2.53;1.50;;;;;;;-3.67;98.31;103160.44;10420286;28;20420;-78
2023/01/22 00:56:49;;;;;;;1.77;1.50;;;;;;;-3.66;98.59;103157.63;10423986;28;20068;-79
2023/01/22 01:01:52;;;;;;;1.40;1.25;;;;;;;-3.61;98.23;103156.41;10428949;28;20408;-78
2023/01/22 01:06:54;;;;;;;1.45;1.15;;;;;;;-3.70;97.48;103164.22;10431823;28;20049;-76
2023/01/22 01:11:56;;;;;;;1.23;1.10;;;;;;;-3.69;97.03;103165.94;10445597;28;20459;-79
2023/01/22 01:16:59;;;;;;;1.17;1.00;;;;;;;-3.68;96.44;103159.56;10442217;28;20052;-78
2023/01/22 01:22:01;;;;;;;1.15;0.93;;;;;;;-3.56;96.15;103160.41;10440313;28;20415;-84
2023/01/22 01:27:03;;;;;;;1.10;1.00;;;;;;;-3.50;96.01;103169.78;10444140;28;20042;-85
2023/01/22 01:32:05;;;;;;;0.75;0.75;;;;;;;-3.59;95.43;103166.03;10441559;28;20439;-84
2023/01/22 01:37:07;;;;;;;0.70;0.65;;;;;;;-3.56;95.31;103159.56;10432952;28;20034;-85
2023/01/22 01:42:10;;;;;;;1.15;0.70;;;;;;;-3.61;94.64;103159.94;10428848;28;20048;-84
2023/01/22 01:47:29;;;;;;;1.30;0.73;;;;;;;-3.59;94.87;103163.34;10418269;28;20057;-84
2023/01/22 01:52:31;;;;;;;1.08;0.60;;;;;;;-3.55;94.14;103175.53;10456710;28;20105;-83
2023/01/22 01:57:34;;;;;;;1.15;0.65;;;;;;;-3.67;94.09;103165.78;10454921;28;20097;-84
2023/01/22 02:02:36;;;;;;;0.85;0.63;;;;;;;-3.64;94.24;103170.94;10457689;28;20104;-85
2023/01/22 02:07:38;;;;;;;1.00;0.70;;;;;;;-3.49;93.99;103172.31;10450260;28;20120;-83
2023/01/22 02:12:40;;;;;;;0.63;0.50;;;;;;;-3.54;93.67;103177.22;10434554;28;20048;-84
2023/01/22 02:17:43;;;;;;;1.40;1.00;;;;;;;-3.50;93.47;103180.50;10415856;28;20037;-83
2023/01/22 02:22:45;;;;;;;0.30;0.30;;;;;;;-3.55;93.12;103170.16;10451218;28;20045;-83
2023/01/22 02:27:47;;;;;;;0.55;0.50;;;;;;;-3.59;92.86;103176.78;10448681;28;20041;-85
2023/01/22 02:32:51;;;;;;;1.23;0.47;;;;;;;-3.53;93.22;103183.44;10421281;28;20049;-84
2023/01/22 02:37:53;;;;;;;1.20;0.70;;;;;;;-3.50;93.18;103177.81;10438431;28;20046;-84
2023/01/22 02:42:56;;;;;;;0.40;0.40;;;;;;;-3.49;93.16;103171.47;10411119;28;20034;-84
2023/01/22 02:47:59;;;;;;;1.05;0.73;;;;;;;-3.52;92.89;103187.84;10447238;28;20504;-85
2023/01/22 02:53:02;;;;;;;1.27;0.63;;;;;;;-3.58;92.92;103177.63;10422153;28;20033;-85
2023/01/22 02:58:05;;;;;;;0.90;0.70;;;;;;;-3.38;92.80;103182.19;10437876;28;20409;-83
2023/01/22 03:03:14;;;;;;;1.20;0.70;;;;;;;-3.40;92.88;103185.00;10405660;28;20038;-84
2023/01/22 03:08:18;;;;;;;0.68;0.65;;;;;;;-3.49;92.61;103193.81;10424960;28;20049;-84
2023/01/22 03:24:03;;;;;;;2.70;1.00;;;;;;;-3.13;92.80;103194.41;10427967;28;20045;-84
2023/01/22 03:29:06;;;;;;;1.00;0.90;;;;;;;-3.25;92.38;103192.78;10446035;28;20041;-87
2023/01/22 03:34:09;;;;;;;2.03;1.17;;;;;;;-3.42;92.46;103191.47;10441280;28;20048;-86
2023/01/22 03:39:11;;;;;;;1.20;0.95;;;;;;;-3.22;92.63;103200.56;10411325;28;20487;-85
2023/01/22 03:44:14;;;;;;;0.52;0.50;;;;;;;-3.36;92.47;103202.56;10427408;28;20049;-85
2023/01/22 03:49:17;;;;;;;1.08;0.98;;;;;;;-3.33;92.37;103204.13;10424683;28;20049;-85
2023/01/22 03:54:24;;;;;;;2.42;1.20;;;;;;;-3.31;92.16;103204.84;10403840;28;20516;-85
2023/01/22 03:59:30;;;;;;;0.73;0.55;;;;;;;-3.54;92.02;103204.06;10423682;28;20052;-85
2023/01/22 04:04:32;;;;;;;0.80;0.80;;;;;;;-3.71;91.84;103215.31;10446733;28;20176;-87
2023/01/22 04:09:34;;;;;;;0.45;0.40;;;;;;;-3.81;92.60;103219.75;10423057;28;20053;-86
2023/01/22 04:14:37;;;;;;;0.50;0.50;;;;;;;-3.75;92.72;103221.94;10429511;28;20038;-86
2023/01/22 04:19:40;;;;;;;1.20;1.05;;;;;;;-3.80;92.89;103224.13;10425138;28;20034;-86
2023/01/22 04:24:53;;;;;;;0.93;0.85;;;;;;;-3.67;93.15;103230.19;10423039;28;20045;-86
2023/01/22 04:29:55;;;;;;;1.67;0.63;;;;;;;-3.76;92.79;103239.84;10433502;28;20052;-85
2023/01/22 04:34:59;;;;;;;0.88;0.73;;;;;;;-3.78;92.66;103235.59;10425073;28;20042;-87
2023/01/22 04:40:11;;;;;;;0.60;0.60;;;;;;;-3.79;92.44;103247.31;10418773;28;20057;-85
2023/01/22 04:45:13;;;;;;;1.83;0.70;;;;;;;-3.96;92.45;103246.81;10418126;28;20420;-87
2023/01/22 04:50:21;;;;;;;1.40;1.02;;;;;;;-4.03;92.89;103242.03;10436110;28;20041;-86
2023/01/22 04:55:25;;;;;;;0.60;0.60;;;;;;;-3.83;93.09;103240.44;10410907;28;20041;-85
2023/01/22 05:00:35;;;;;;;1.25;0.60;;;;;;;-3.78;93.29;103238.28;10436571;28;20046;-86
2023/01/22 05:05:38;;;;;;;0.80;0.55;;;;;;;-3.81;93.08;103260.84;10406385;28;20046;-87
2023/01/22 05:10:40;;;;;;;1.08;0.60;;;;;;;-3.80;92.63;103250.97;10408988;28;20041;-86
2023/01/22 05:15:45;;;;;;;0.90;0.70;;;;;;;-3.78;92.78;103260.59;10426711;28;20042;-86
2023/01/22 05:20:48;;;;;;;1.00;0.60;;;;;;;-3.85;93.03;103266.53;10433066;28;20049;-84
2023/01/22 05:25:52;;;;;;;0.50;0.50;;;;;;;-3.92;92.85;103276.94;10415088;28;20402;-85
2023/01/22 05:31:03;;;;;;;0.30;0.17;;;;;;;-3.97;92.71;103271.94;10411189;28;20397;-85
2023/01/22 05:36:11;;;;;;;0.10;0.10;;;;;;;-4.09;92.79;103272.88;10424709;28;20034;-84
2023/01/22 05:41:14;;;;;;;1.15;0.52;;;;;;;-4.08;92.80;103282.63;10411864;28;20542;-84
2023/01/22 05:46:16;;;;;;;0.47;0.47;;;;;;;-4.05;92.92;103282.38;10445643;28;20058;-87
2023/01/22 05:51:24;;;;;;;0.70;0.60;;;;;;;-4.07;93.33;103291.53;10437237;28;20046;-86
2023/01/22 05:56:29;;;;;;;0.50;0.50;;;;;;;-4.04;93.08;103284.09;10393714;28;20045;-86
2023/01/22 06:01:33;;;;;;;1.02;0.70;;;;;;;-3.92;93.31;103292.16;10442524;28;20054;-86
2023/01/22 06:06:35;;;;;;;0.95;0.55;;;;;;;-3.86;93.42;103297.03;10409350;28;20489;-85
2023/01/22 06:11:37;;;;;;;0.85;0.63;;;;;;;-3.80;93.59;103296.56;10406611;28;20504;-84
2023/01/22 06:16:40;;;;;;;0.73;0.50;;;;;;;-3.61;93.30;103302.16;10434341;28;20049;-84
2023/01/22 06:21:57;;;;;;;2.50;0.70;;;;;;;-3.75;93.11;103294.38;10433399;28;20045;-84
2023/01/22 06:27:05;;;;;;;1.02;0.60;;;;;;;-3.63;92.73;103305.97;10435236;28;20083;-86
2023/01/22 06:32:16;;;;;;;1.45;0.80;;;;;;;-3.69;92.56;103318.00;10442681;28;20049;-85
2023/01/22 06:37:20;;;;;;;0.40;0.40;;;;;;;-3.84;92.38;103324.59;10441232;28;20428;-85
2023/01/22 06:42:22;;;;;;;0.88;0.60;;;;;;;-3.75;92.67;103332.78;10443582;28;20041;-84
2023/01/22 06:47:26;;;;;;;0.93;0.50;;;;;;;-3.67;92.83;103326.78;10422167;28;20057;-85
2023/01/22 06:52:28;;;;;;;0.45;0.45;;;;;;;-3.84;92.05;103346.91;10446506;28;20037;-85
2023/01/22 06:57:30;;;;;;;0.65;0.30;;;;;;;-3.82;92.01;103353.00;10446476;28;20052;-85
2023/01/22 07:02:34;;;;;;;0.40;0.40;;;;;;;-3.87;91.73;103346.28;10429428;28;20504;-84
2023/01/22 07:07:36;;;;;;;0.45;0.40;;;;;;;-3.88;92.13;103349.94;10430033;28;20057;-86
2023/01/22 07:12:38;;;;;;;0.25;0.22;;;;;;;-3.86;91.94;103354.22;10405716;28;20037;-85
2023/01/22 07:17:40;;;;;;;0.63;0.45;;;;;;;-3.97;92.06;103352.38;10407680;28;20501;-85
2023/01/22 07:22:43;;;;;;;0.98;0.50;;;;;;;-3.97;91.99;103368.47;10422737;28;20037;-85
2023/01/22 07:27:45;;;;;;;0.75;0.50;;;;;;;-3.85;91.90;103365.78;10433872;28;20041;-83
2023/01/22 07:32:48;;;;;;;0.80;0.80;;;;;;;-3.83;92.30;103370.06;10442361;28;20041;-83
2023/01/22 07:37:52;;;;;;;2.60;0.55;;;;;;;-3.69;92.09;103371.66;10441565;28;20056;-84
2023/01/22 07:42:55;;;;;;;0.85;0.63;;;;;;;-3.73;91.83;103381.78;10437551;28;20435;-84
2023/01/22 07:47:59;;;;;;;0.68;0.60;;;;;;;-3.66;92.23;103380.34;10421314;28;20041;-85
2023/01/22 07:53:26;;;;;;;0.35;0.35;;;;;;;-3.70;91.92;103380.69;10423339;28;20037;-84
2023/01/22 07:58:28;;;;;;;2.88;0.70;;;;;;;-3.68;91.41;103381.44;10441595;28;20400;-86
2023/01/22 08:03:32;;;;;;;3.30;1.00;;;;;;;-3.59;91.86;103390.59;10442103;28;20049;-85
2023/01/22 08:08:35;;;;;;;3.38;0.85;;;;;;;-3.63;91.71;103390.00;10437963;28;20049;-87
2023/01/22 08:13:37;;;;;;;0.90;0.80;;;;;;;-3.66;91.30;103392.91;10419623;28;20037;-86
2023/01/22 08:18:40;;;;;;;2.33;0.73;;;;;;;-3.68;91.71;103400.22;10430823;28;20508;-85
2023/01/22 08:24:09;;;;;;;0.60;0.60;;;;;;;-3.74;91.27;103401.56;10434737;28;20045;-86
2023/01/22 08:29:12;;;;;;;1.00;0.70;;;;;;;-3.75;91.60;103399.00;10437018;28;20381;-86
2023/01/22 08:34:14;;;;;;;1.02;0.77;;;;;;;-3.70;91.41;103403.03;10452411;28;20423;-86
2023/01/22 08:39:17;;;;;;;1.58;0.60;;;;;;;-3.77;91.21;103412.53;10450612;28;20045;-87
2023/01/22 08:44:20;;;;;;;1.90;0.80;;;;;;;-3.81;91.57;103418.25;10427960;28;20562;-87
2023/01/22 08:49:22;;;;;;;1.25;0.95;;;;;;;-3.65;92.04;103416.06;10419868;28;20522;-86
2023/01/22 08:54:25;;;;;;;1.10;0.70;;;;;;;-3.60;91.87;103416.59;10423857;28;20046;-87
2023/01/22 08:59:27;;;;;;;0.45;0.45;;;;;;;-3.81;91.14;103420.94;10444998;28;20037;-86
2023/01/22 09:04:29;;;;;;;0.50;0.50;;;;;;;-3.70;91.49;103416.44;10421531;28;20517;-85
2023/01/22 09:09:32;;;;;;;0.85;0.75;;;;;;;-3.75;91.33;103415.09;10432683;28;20128;-86
2023/01/22 09:14:34;;;;;;;0.50;0.50;;;;;;;-3.75;91.45;103417.78;10426563;28;20045;-86
2023/01/22 09:19:37;;;;;;;1.00;0.65;;;;;;;-3.67;91.63;103418.03;10414324;28;20057;-86
2023/01/22 09:24:39;;;;;;;1.33;0.93;;;;;;;-3.52;91.71;103419.50;10438355;28;20057;-85
2023/01/22 09:29:41;;;;;;;1.08;0.80;;;;;;;-3.44;91.43;103421.59;10436296;28;20072;-85
2023/01/22 09:34:44;;;;;;;1.17;1.00;;;;;;;-3.42;91.15;103423.19;10442445;28;20053;-85
2023/01/22 09:39:49;;;;;;;2.17;0.90;;;;;;;-3.44;90.58;103417.09;10438650;28;20157;-85
2023/01/22 09:44:55;;;;;;;1.80;0.85;;;;;;;-3.49;90.57;103423.78;10434552;28;20053;-84
2023/01/22 09:50:19;;;;;;;1.23;0.95;;;;;;;-3.67;90.43;103420.69;10427945;28;20496;-83
2023/01/22 09:55:23;;;;;;;0.75;0.73;;;;;;;-3.53;90.96;103420.47;10409050;28;20041;-81
2023/01/22 10:00:38;;;;;;;1.98;0.77;;;;;;;-3.50;90.89;103430.97;10438028;28;20045;-81
2023/01/22 10:05:48;;;;;;;0.93;0.80;;;;;;;-3.54;90.40;103420.59;10442057;28;20443;-79
2023/01/22 10:10:51;;;;;;;1.35;0.85;;;;;;;-3.41;90.24;103424.91;10459994;28;20045;-83
2023/01/22 10:15:54;;;;;;;1.25;1.00;;;;;;;-3.51;90.42;103410.47;10430591;28;20447;-83
2023/01/22 10:20:59;;;;;;;1.05;0.50;;;;;;;-3.80;90.31;103434.25;10463738;28;20037;-84
2023/01/22 10:26:36;;;;;;;1.20;0.70;;;;;;;-3.95;90.82;103417.50;10452479;28;20041;-83
2023/01/22 10:31:45;;;;;;;0.40;0.40;;;;;;;-3.79;90.84;103414.47;10440740;28;20085;-83
2023/01/22 10:36:51;;;;;;;0.40;0.40;;;;;;;-3.84;90.76;103411.28;10440671;28;20512;-82
2023/01/22 10:42:00;;;;;;;0.50;0.50;;;;;;;-3.99;90.98;103416.03;10421590;28;20050;-80
2023/01/22 10:47:11;;;;;;;;;;;;;;;-3.98;91.16;103436.50;10423169;28;20038;-84
2023/01/22 10:52:26;;;;;;;0.60;0.60;;;;;;;-4.19;91.41;103431.91;10431164;28;19921;-89
2023/01/22 10:57:32;;;;;;;0.50;0.50;;;;;;;-4.05;91.79;103435.25;10434815;28;20048;-80
2023/01/22 11:02:34;;;;;;;1.25;0.85;;;;;;;-3.98;91.63;103436.50;10427291;28;20065;-85
2023/01/22 11:07:37;;;;;;;1.80;1.13;;;;;;;-4.05;91.28;103435.25;10423480;28;20037;-83
2023/01/22 11:12:44;;;;;;;1.50;0.85;;;;;;;-3.91;91.55;103436.88;10421230;28;20415;-83
2023/01/22 11:17:50;;;;;;;0.80;0.80;;;;;;;-4.05;91.47;103431.72;10421157;28;20071;-84
2023/01/22 11:23:13;;;;;;;1.55;0.93;;;;;;;-4.08;91.53;103426.59;10427684;28;20050;-75
2023/01/22 11:28:43;;;;;;;1.15;1.00;;;;;;;-4.27;91.38;103430.66;10425559;28;20529;-77
2023/01/22 11:34:04;;;;;;;1.40;1.02;;;;;;;-4.26;91.98;103429.69;10423606;28;20049;-84
2023/01/22 11:39:24;;;;;;;1.17;1.08;;;;;;;-4.21;92.60;103429.34;10443128;28;20041;-82
2023/01/22 11:44:40;;;;;;;1.35;1.20;;;;;;;-4.10;92.98;103425.84;10419282;28;20052;-73
2023/01/22 11:49:58;;;;;;;1.88;1.42;;;;;;;-4.15;92.59;103426.22;10432068;28;20048;-72
2023/01/22 11:55:13;;;;;;;1.58;1.00;;;;;;;-4.22;92.95;103427.63;10435854;28;20049;-90
2023/01/22 12:00:21;;;;;;;2.28;1.20;;;;;;;-4.33;92.69;103432.97;10446273;28;20038;-88
2023/01/22 12:05:30;;;;;;;1.65;1.30;;;;;;;-4.21;93.24;103433.84;10436846;28;20050;-89
2023/01/22 12:10:35;;;;;;;1.27;1.13;;;;;;;-4.35;92.81;103432.19;10445478;28;20432;-81
2023/01/22 12:16:10;;;;;;;1.10;1.00;;;;;;;-4.47;92.97;103419.72;10421301;28;20038;-78
2023/01/22 12:21:45;;;;;;;2.90;1.05;;;;;;;-4.56;93.20;103434.66;10438135;28;20421;-81
2023/01/22 12:26:56;;;;;;;1.05;0.85;;;;;;;-4.57;93.10;103427.56;10447192;28;20044;-85
2023/01/22 12:32:01;;;;;;;2.67;0.90;;;;;;;-4.56;93.28;103442.69;10421911;28;20060;-92
2023/01/22 12:37:05;;;;;;;3.55;0.50;;;;;;;-4.61;93.72;103437.69;10445888;28;20034;-82
2023/01/22 12:42:30;;;;;;;1.08;1.05;;;;;;;-4.62;93.69;103437.78;10442563;28;20056;-83
2023/01/22 12:47:45;;;;;;;1.15;0.85;;;;;;;-4.60;93.78;103426.00;10441707;28;20041;-79
2023/01/22 12:53:04;;;;;;;0.88;0.85;;;;;;;-4.56;94.07;103437.31;10435101;28;20424;-81
2023/01/22 12:58:20;;;;;;;0.60;0.60;;;;;;;-4.68;93.69;103438.25;10441423;28;20033;-82
2023/01/22 13:03:27;;;;;;;1.60;0.60;;;;;;;-4.65;94.49;103441.56;10424061;28;20043;-84
2023/01/22 13:08:41;;;;;;;0.80;0.80;;;;;;;-4.66;94.40;103442.53;10426086;28;20057;-83
2023/01/22 13:13:53;;;;;;;2.22;0.75;;;;;;;-4.71;94.68;103439.31;10427031;28;20042;-76
2023/01/22 13:18:55;;;;;;;1.10;0.90;;;;;;;-4.68;94.72;103447.16;10440058;28;20034;-79
2023/01/22 13:24:04;;;;;;;1.13;0.70;;;;;;;-4.75;94.69;103451.22;10427489;28;20532;-87
2023/01/22 13:29:27;;;;;;;1.10;1.00;;;;;;;-4.82;95.03;103452.66;10426077;28;20420;-90
2023/01/22 13:34:30;;;;;;;1.75;0.70;;;;;;;-4.58;95.47;103448.16;10428815;28;20313;-85
2023/01/22 13:39:32;;;;;;;1.10;0.80;;;;;;;-4.40;95.97;103450.44;10433916;28;20046;-78
2023/01/22 13:44:38;;;;;;;1.05;0.65;;;;;;;-4.39;95.98;103446.78;10436090;28;20416;-78
2023/01/22 13:49:41;;;;;;;1.42;0.80;;;;;;;-4.39;95.34;103457.50;10423514;28;20041;-79
2023/01/22 13:54:48;;;;;;;0.65;0.43;;;;;;;-4.42;95.59;103458.59;10421101;28;20041;-75
2023/01/22 13:59:52;;;;;;;0.90;0.80;;;;;;;-4.41;95.36;103448.75;10422270;28;20546;-79
2023/01/22 14:04:56;;;;;;;1.08;0.73;;;;;;;-4.51;94.77;103453.94;10415245;28;20213;-77
2023/01/22 14:10:13;;;;;;;0.80;0.70;;;;;;;-4.59;94.83;103456.31;10409792;28;20591;-76
2023/01/22 14:15:18;;;;;;;0.50;0.50;;;;;;;-4.39;94.84;103468.25;10426747;28;20050;-77
2023/01/22 14:20:21;;;;;;;0.70;0.60;;;;;;;-4.35;95.46;103459.00;10427707;28;20043;-77
2023/01/22 14:25:23;;;;;;;0.88;0.88;;;;;;;-4.30;95.59;103452.34;10419017;28;20045;-77
2023/01/22 14:30:25;;;;;;;0.73;0.63;;;;;;;-4.23;95.23;103458.09;10419921;28;20049;-77
2023/01/22 14:35:27;;;;;;;0.30;0.30;;;;;;;-4.20;95.20;103462.34;10426731;28;20041;-80
2023/01/22 14:40:31;;;;;;;0.70;0.70;;;;;;;-4.26;95.25;103453.81;10427309;28;20049;-83
2023/01/22 14:45:38;;;;;;;0.68;0.68;;;;;;;-3.96;95.04;103457.84;10425851;28;20037;-84
2023/01/22 14:50:43;;;;;;;1.02;0.93;;;;;;;-4.30;94.31;103467.56;10430409;28;20426;-75
2023/01/22 14:55:45;;;;;;;1.52;1.08;;;;;;;-4.49;94.09;103460.03;10425019;28;20067;-75
2023/01/22 15:00:48;;;;;;;1.25;0.73;;;;;;;-4.67;94.14;103464.06;10424287;28;20042;-75
2023/01/22 15:05:51;;;;;;;1.23;0.50;;;;;;;-4.77;93.96;103469.22;10427060;28;20527;-76
2023/01/22 15:10:53;;;;;;;1.33;0.65;;;;;;;-4.83;94.38;103469.69;10420674;28;20431;-77
2023/01/22 15:15:55;;;;;;;0.15;0.15;;;;;;;-4.79;94.77;103476.53;10429788;28;20041;-78
2023/01/22 15:20:57;;;;;;;0.43;0.43;;;;;;;-4.82;95.01;103487.47;10425958;28;20045;-77
2023/01/22 15:26:03;;;;;;;1.30;0.90;;;;;;;-4.95;95.14;103491.97;10436940;28;20508;-78
2023/01/22 15:31:08;;;;;;;1.02;0.88;;;;;;;-5.03;95.26;103489.88;10441400;28;20559;-78
2023/01/22 15:36:10;;;;;;;0.22;0.22;;;;;;;-4.84;95.65;103485.88;10438136;28;20057;-78
2023/01/22 15:41:20;;;;;;;0.80;0.65;;;;;;;-4.64;95.78;103478.09;10422037;28;20419;-76
2023/01/22 15:46:24;;;;;;;1.08;1.00;;;;;;;-4.38;96.62;103489.56;10442420;28;20523;-78
2023/01/22 15:51:27;;;;;;;0.45;0.45;;;;;;;-4.53;96.66;103481.78;10410973;28;20041;-77
2023/01/22 15:56:31;;;;;;;0.50;0.50;;;;;;;-4.60;96.58;103489.44;10440758;28;20053;-76
2023/01/22 16:01:34;;;;;;;0.82;0.55;;;;;;;-4.58;96.16;103495.53;10439754;28;20505;-79
2023/01/22 16:06:36;;;;;;;0.82;0.80;;;;;;;-4.49;96.32;103502.91;10437928;28;20037;-77
2023/01/22 16:11:38;;;;;;;1.05;0.80;;;;;;;-4.51;96.67;103512.91;10431480;28;20043;-78
2023/01/22 16:16:41;;;;;;;0.50;0.40;;;;;;;-4.27;96.20;103510.22;10436462;28;20041;-77
2023/01/22 16:21:44;;;;;;;0.85;0.82;;;;;;;-4.42;96.08;103506.00;10430982;28;20061;-73
2023/01/22 16:26:47;;;;;;;0.75;0.75;;;;;;;-4.45;95.93;103506.22;10417273;28;20041;-74
2023/01/22 16:31:50;;;;;;;0.57;0.57;;;;;;;-4.37;95.93;103503.81;10430616;28;20413;-74
2023/01/22 16:36:54;;;;;;;1.25;0.60;;;;;;;-4.45;95.68;103507.06;10439261;28;20057;-75
2023/01/22 16:41:56;;;;;;;0.30;0.30;;;;;;;-4.48;95.79;103509.13;10437522;28;20048;-78
2023/01/22 16:46:59;;;;;;;0.40;0.40;;;;;;;-4.40;95.50;103514.78;10440170;28;20037;-84
2023/01/22 16:52:05;;;;;;;0.68;0.60;;;;;;;-4.32;95.42;103517.75;10460952;28;20469;-85
2023/01/22 16:57:08;;;;;;;0.70;0.50;;;;;;;-4.53;95.11;103522.84;10426413;28;20036;-83
2023/01/22 17:02:13;;;;;;;0.45;0.45;;;;;;;-4.40;95.00;103514.78;10454412;28;20060;-85
2023/01/22 17:07:16;;;;;;;0.50;0.50;;;;;;;-4.63;95.00;103530.72;10433041;28;20135;-86
2023/01/22 17:12:24;;;;;;;1.02;0.60;;;;;;;-5.00;94.39;103526.28;10435670;28;20055;-92
2023/01/22 17:17:26;;;;;;;0.55;0.55;;;;;;;-5.11;93.93;103515.44;10450735;28;20079;-84
2023/01/22 17:22:28;;;;;;;1.05;0.80;;;;;;;-5.10;94.37;103515.34;10422028;28;20037;-79
2023/01/22 17:27:35;;;;;;;0.85;0.80;;;;;;;-5.18;94.99;103509.69;10429402;28;20041;-79
2023/01/22 17:32:37;;;;;;;0.95;0.85;;;;;;;-5.28;95.57;103516.63;10438289;28;20052;-80
2023/01/22 17:37:40;;;;;;;0.73;0.73;;;;;;;-5.39;95.94;103514.69;10446882;28;20058;-81
2023/01/22 17:42:42;;;;;;;1.27;0.90;;;;;;;-5.41;96.26;103513.94;10428707;28;20041;-81
2023/01/22 17:47:45;;;;;;;1.10;0.47;;;;;;;-5.39;96.71;103517.38;10432820;28;20055;-80
2023/01/22 17:52:47;;;;;;;0.28;0.28;;;;;;;-5.47;96.76;103511.69;10431171;28;20056;-77
2023/01/22 17:57:53;;;;;;;0.22;0.22;;;;;;;-5.52;96.99;103524.53;10435101;28;20050;-83
2023/01/22 18:02:55;;;;;;;0.95;0.68;;;;;;;-5.50;96.97;103512.78;10431826;28;20038;-77
2023/01/22 18:08:02;;;;;;;1.13;0.85;;;;;;;-5.34;97.14;103520.59;10433957;28;20037;-77
2023/01/22 18:13:04;;;;;;;7.90;0.90;;;;;;;-5.25;97.59;103527.97;10436611;28;20043;-77
2023/01/22 18:18:07;;;;;;;1.00;0.90;;;;;;;-5.37;97.80;103534.19;10439030;28;20034;-76
2023/01/22 18:23:10;;;;;;;1.35;0.88;;;;;;;-5.39;97.32;103528.06;10430736;28;20042;-77
2023/01/22 18:28:13;;;;;;;1.42;1.10;;;;;;;-5.47;97.41;103527.75;10411593;28;20045;-77
2023/01/22 18:33:17;;;;;;;1.60;1.00;;;;;;;-5.37;97.08;103528.00;10416330;28;20041;-80
2023/01/22 18:38:23;;;;;;;2.53;1.33;;;;;;;-5.25;97.55;103522.63;10427241;28;20060;-78
2023/01/22 18:43:26;;;;;;;1.17;1.00;;;;;;;-5.20;97.81;103508.94;10453373;28;20042;-84
2023/01/22 18:48:28;;;;;;;1.63;1.08;;;;;;;-5.18;97.67;103513.22;10457117;28;20050;-81
2023/01/22 18:53:34;;;;;;;1.15;0.98;;;;;;;-5.22;97.79;103518.88;10450220;28;20053;-85
2023/01/22 18:58:37;;;;;;;1.83;1.05;;;;;;;-5.07;97.66;103508.91;10412979;28;20045;-81
2023/01/22 19:03:41;;;;;;;2.10;1.30;;;;;;;-4.86;97.60;103507.38;10418535;28;20046;-83
2023/01/22 19:08:57;;;;;;;2.65;1.00;;;;;;;-4.70;97.98;103509.81;10422160;28;20046;-84
2023/01/22 19:14:01;;;;;;;2.10;1.40;;;;;;;-4.59;97.49;103499.19;10431476;28;20052;-79
2023/01/22 19:19:09;;;;;;;1.67;1.08;;;;;;;-4.44;97.17;103506.09;10420313;28;20397;-79
2023/01/22 19:24:36;;;;;;;2.50;0.82;;;;;;;-4.22;96.78;103491.09;10409287;28;20059;-90
2023/01/22 19:30:04;;;;;;;1.50;1.27;;;;;;;-3.96;95.85;103493.56;10423624;28;20053;-85
2023/01/22 19:35:08;;;;;;;1.38;0.98;;;;;;;-4.16;95.48;103496.03;10419090;28;20549;-87
2023/01/22 19:40:11;;;;;;;2.25;1.20;;;;;;;-4.29;94.57;103504.97;10436179;28;20049;-75
2023/01/22 19:45:14;;;;;;;2.47;1.40;;;;;;;-4.22;94.15;103501.84;10414749;28;20528;-77
2023/01/22 19:50:17;;;;;;;3.00;1.90;;;;;;;-4.32;93.76;103521.28;10421706;28;20054;-77
2023/01/22 19:55:19;;;;;;;1.10;1.00;;;;;;;-4.70;93.12;103508.00;10430636;28;20069;-78
2023/01/22 20:00:22;;;;;;;2.05;1.45;;;;;;;-4.86;92.80;103502.03;10427660;28;20050;-77
2023/01/22 20:05:28;;;;;;;2.65;1.80;;;;;;;-4.81;93.54;103502.56;10414487;28;20655;-76
2023/01/22 20:10:31;;;;;;;1.38;0.93;;;;;;;-4.81;93.60;103497.22;10418530;28;20493;-77
2023/01/22 20:15:41;;;;;;;0.47;0.47;;;;;;;-5.08;93.60;103501.84;10406203;28;20421;-76
2023/01/22 20:20:51;;;;;;;1.42;1.10;;;;;;;-5.14;93.13;103513.00;10436646;28;20038;-77
2023/01/22 20:25:59;;;;;;;2.38;1.30;;;;;;;-4.55;93.98;103514.06;10426560;28;20045;-77
2023/01/22 20:31:03;;;;;;;1.70;1.58;;;;;;;-4.49;94.23;103519.00;10433227;28;20045;-76
2023/01/22 20:36:13;;;;;;;3.70;2.25;;;;;;;-4.76;93.41;103527.19;10430604;28;20037;-76
2023/01/22 20:41:17;;;;;;;3.03;1.70;;;;;;;-4.53;93.35;103524.66;10444045;28;20550;-77
2023/01/22 20:46:22;;;;;;;2.35;1.85;;;;;;;-4.31;93.46;103524.84;10428039;28;20381;-75
2023/01/22 20:51:27;;;;;;;2.85;1.48;;;;;;;-4.65;92.81;103531.78;10436553;28;20057;-76
2023/01/22 20:56:31;;;;;;;2.35;1.65;;;;;;;-4.56;92.73;103518.56;10446855;28;20049;-75
2023/01/22 21:01:34;;;;;;;2.17;1.50;;;;;;;-4.46;92.65;103515.22;10423201;28;20499;-75
2023/01/22 21:06:38;;;;;;;1.88;1.50;;;;;;;-4.50;92.47;103508.41;10416695;28;20041;-75
2023/01/22 21:11:41;;;;;;;3.20;1.02;;;;;;;-4.38;92.41;103512.84;10441073;28;20550;-76
2023/01/22 21:16:43;;;;;;;3.42;1.92;;;;;;;-4.62;91.69;103508.31;10440221;28;20048;-77
2023/01/22 21:21:46;;;;;;;2.58;1.98;;;;;;;-4.29;92.00;103515.72;10451240;28;20041;-78
2023/01/22 21:26:49;;;;;;;2.53;1.83;;;;;;;-4.36;91.68;103501.03;10453895;28;20046;-77
2023/01/22 21:31:52;;;;;;;4.60;2.67;;;;;;;-4.87;90.87;103503.84;10453842;28;20423;-77
2023/01/22 21:36:57;;;;;;;3.72;2.38;;;;;;;-4.73;92.02;103497.50;10444397;28;20048;-79
2023/01/22 21:47:20;;;;;;;2.65;2.03;;;;;;;-4.22;92.13;103501.84;10447048;28;20042;-76
2023/01/22 21:52:22;;;;;;;2.30;2.10;;;;;;;-4.16;91.34;103502.25;10435019;28;20042;-82
2023/01/22 21:57:30;;;;;;;3.55;2.10;;;;;;;-4.41;90.99;103497.84;10440955;28;20118;-78
2023/01/22 22:02:32;;;;;;;2.78;2.15;;;;;;;-4.73;90.88;103510.03;10457620;28;20050;-85
2023/01/22 22:07:34;;;;;;;2.35;2.10;;;;;;;-4.55;91.16;103509.56;10453033;28;20385;-84
2023/01/22 22:12:37;;;;;;;2.20;2.00;;;;;;;-4.66;90.82;103504.16;10436415;28;20044;-86
2023/01/22 22:17:40;;;;;;;2.67;2.47;;;;;;;-4.70;90.55;103499.09;10437301;28;20050;-91
2023/01/22 22:22:44;;;;;;;2.38;1.95;;;;;;;-5.01;90.53;103498.63;10432461;28;20086;-86
2023/01/22 22:27:46;;;;;;;2.85;1.98;;;;;;;-4.81;91.00;103491.84;10432195;28;20048;-84
2023/01/22 22:32:49;;;;;;;3.00;2.05;;;;;;;-4.65;91.31;103483.56;10437586;28;20037;-84
2023/01/22 22:37:51;;;;;;;2.53;2.05;;;;;;;-4.70;91.22;103485.69;10452394;28;20049;-83
2023/01/22 22:42:54;;;;;;;2.45;1.88;;;;;;;-4.90;90.91;103481.78;10456078;28;20052;-88
2023/01/22 22:47:57;;;;;;;3.00;2.08;;;;;;;-4.86;90.79;103486.84;10437315;28;20411;-86
2023/01/22 22:53:01;;;;;;;2.33;2.10;;;;;;;-5.01;90.58;103492.44;10420568;28;20048;-87
2023/01/22 22:58:03;;;;;;;2.67;1.80;;;;;;;-5.19;89.99;103506.16;10449754;28;20049;-88
2023/01/22 23:03:05;;;;;;;2.47;1.80;;;;;;;-5.23;90.76;103493.06;10462538;28;20052;-90
2023/01/22 23:08:07;;;;;;;2.83;2.30;;;;;;;-4.91;90.97;103488.13;10459959;28;20059;-89
2023/01/22 23:13:11;;;;;;;3.05;2.47;;;;;;;-4.84;91.06;103484.03;10437782;28;20053;-88
2023/01/22 23:18:13;;;;;;;2.50;2.30;;;;;;;-5.11;91.04;103507.41;10443384;28;20044;-88
2023/01/22 23:23:16;;;;;;;2.88;2.40;;;;;;;-5.07;91.49;103498.19;10442568;28;20049;-87
2023/01/22 23:28:18;;;;;;;3.40;2.53;;;;;;;-5.11;91.63;103483.31;10457749;28;20092;-87
2023/01/22 23:33:20;;;;;;;3.10;2.60;;;;;;;-4.93;91.74;103474.84;10453634;28;20064;-86
2023/01/22 23:38:22;;;;;;;2.60;2.40;;;;;;;-4.98;91.60;103466.28;10440430;28;20045;-81